createdAt,value
2023-04-28T00:04:17.046Z,15.18
2023-04-28T00:09:18.985Z,16.20
2023-04-28T00:14:20.501Z,15.15
2023-04-28T00:19:22.286Z,13.82
2023-04-28T00:24:23.852Z,14.00
2023-04-28T00:29:25.485Z,11.80
2023-04-28T00:34:27.027Z,14.60
2023-04-28T00:39:28.551Z,12.20
2023-04-28T00:44:30.123Z,13.98
2023-04-28T00:49:31.930Z,14.98
2023-04-28T00:54:34.810Z,11.57
2023-04-28T00:59:36.777Z,13.98
2023-04-28T01:04:38.552Z,13.90
2023-04-28T01:09:40.217Z,11.57
2023-04-28T01:14:42.312Z,12.82
2023-04-28T01:19:43.822Z,15.55
2023-04-28T01:24:45.355Z,11.85
2023-04-28T01:29:46.902Z,16.25
2023-04-28T01:34:48.415Z,15.40
2023-04-28T01:39:49.945Z,14.98
2023-04-28T01:44:51.464Z,14.25
2023-04-28T01:49:52.939Z,14.80
2023-04-28T01:54:54.808Z,13.70
2023-04-28T01:59:56.354Z,12.70
2023-04-28T02:04:58.269Z,14.82
2023-04-28T02:09:59.776Z,16.23
2023-04-28T02:15:01.296Z,20.08
2023-04-28T02:20:02.859Z,19.83
2023-04-28T02:25:04.716Z,13.55
2023-04-28T02:30:06.871Z,16.85
2023-04-28T02:35:08.502Z,21.83
2023-04-28T02:40:10.331Z,14.55
2023-04-28T02:45:11.921Z,16.08
2023-04-28T02:50:13.386Z,13.25
2023-04-28T02:55:23.598Z,15.90
2023-04-28T03:00:25.125Z,17.08
2023-04-28T03:05:26.993Z,16.23
2023-04-28T03:10:28.541Z,17.65
2023-04-28T03:15:30.117Z,16.20
2023-04-28T03:20:31.658Z,16.02
2023-04-28T03:25:33.155Z,16.25
2023-04-28T03:30:34.604Z,17.13
2023-04-28T03:35:36.351Z,16.70
2023-04-28T03:40:38.996Z,19.50
2023-04-28T03:45:41.476Z,17.17
2023-04-28T03:50:45.445Z,20.05
2023-04-28T03:55:46.990Z,16.98
2023-04-28T04:00:48.535Z,19.25
2023-04-28T04:05:50.262Z,15.38
2023-04-28T04:10:52.678Z,22.88
2023-04-28T04:15:54.250Z,20.15
2023-04-28T04:20:57.130Z,17.48
2023-04-28T04:25:58.706Z,18.65
2023-04-28T04:31:00.261Z,21.92
2023-04-28T04:36:01.970Z,17.45
2023-04-28T04:41:03.499Z,19.30
2023-04-28T04:46:05.104Z,18.58
2023-04-28T04:51:07.210Z,19.83
2023-04-28T04:56:08.768Z,15.38
2023-04-28T05:01:10.352Z,23.58
2023-04-28T05:06:12.039Z,16.63
2023-04-28T05:11:13.570Z,18.20
2023-04-28T05:16:15.210Z,17.60
2023-04-28T05:21:16.965Z,18.33
2023-04-28T05:26:18.436Z,18.73
2023-04-28T05:31:20.005Z,16.50
2023-04-28T05:36:21.595Z,16.92
2023-04-28T05:41:23.124Z,17.35
2023-04-28T05:46:30.519Z,17.38
2023-04-28T05:51:33.664Z,17.73
2023-04-28T05:56:35.313Z,16.30
2023-04-28T06:01:38.658Z,26.35
2023-04-28T06:06:40.175Z,17.85
2023-04-28T06:11:41.745Z,19.55
2023-04-28T06:16:43.433Z,16.90
2023-04-28T06:21:46.097Z,17.67
2023-04-28T06:26:47.619Z,19.10
2023-04-28T06:31:49.190Z,16.67
2023-04-28T06:36:50.894Z,17.80
2023-04-28T06:41:52.489Z,17.65
2023-04-28T06:46:54.109Z,16.80
2023-04-28T06:51:55.643Z,17.55
2023-04-28T06:56:57.182Z,15.68
2023-04-28T07:01:58.816Z,17.10
2023-04-28T07:07:00.413Z,15.30
2023-04-28T07:12:02.081Z,15.20
2023-04-28T07:17:03.585Z,17.65
2023-04-28T07:22:05.107Z,20.13
2023-04-28T07:27:06.607Z,15.75
2023-04-28T07:32:11.257Z,17.80
2023-04-28T07:37:12.800Z,17.08
2023-04-28T07:42:14.363Z,15.23
2023-04-28T07:47:15.902Z,13.30
2023-04-28T07:52:17.388Z,16.38
2023-04-28T07:57:18.845Z,16.85
2023-04-28T08:02:20.987Z,16.33
2023-04-28T08:07:22.679Z,14.07
2023-04-28T08:12:24.276Z,16.67
2023-04-28T08:17:25.892Z,13.23
2023-04-28T08:22:27.485Z,18.15
2023-04-28T08:27:29.025Z,13.93
2023-04-28T08:32:30.616Z,16.05
2023-04-28T08:37:32.147Z,13.48
2023-04-28T08:42:34.643Z,14.80
2023-04-28T08:47:38.385Z,15.98
2023-04-28T08:52:41.876Z,18.73
2023-04-28T08:57:45.162Z,16.13
2023-04-28T09:02:47.050Z,13.32
2023-04-28T09:07:51.921Z,15.52
2023-04-28T09:12:55.821Z,16.38
2023-04-28T09:17:57.497Z,22.60
2023-04-28T09:23:13.965Z,15.57
2023-04-28T09:28:22.163Z,14.65
2023-04-28T09:33:23.759Z,14.38
2023-04-28T09:38:25.510Z,14.20
2023-04-28T09:43:36.199Z,17.23
2023-04-28T09:48:38.290Z,19.55
2023-04-28T09:53:40.005Z,19.38
2023-04-28T09:58:45.085Z,17.70
2023-04-28T10:03:47.985Z,16.98
2023-04-28T10:08:52.195Z,20.75
2023-04-28T10:13:54.065Z,18.17
2023-04-28T10:18:56.795Z,20.23
2023-04-28T10:24:33.440Z,21.13
2023-04-28T10:29:35.606Z,19.83
2023-04-28T10:34:37.148Z,22.88
2023-04-28T10:39:39.119Z,26.02
2023-04-28T10:44:43.924Z,30.02
2023-04-28T10:49:57.694Z,25.02
2023-04-28T10:55:27.042Z,29.20
2023-04-28T11:00:30.661Z,30.00
2023-04-28T11:05:34.631Z,28.25
2023-04-28T11:11:10.126Z,27.35
2023-04-28T11:16:14.696Z,34.40
2023-04-28T11:21:16.768Z,34.95
2023-04-28T11:26:20.076Z,29.63
2023-04-28T11:31:24.365Z,33.28
2023-04-28T11:36:38.201Z,33.92
2023-04-28T11:41:44.737Z,36.35
2023-04-28T11:46:57.473Z,32.58
2023-04-28T11:52:05.956Z,37.75
2023-04-28T11:57:07.937Z,36.70
2023-04-28T12:02:09.884Z,36.40
2023-04-28T12:07:17.265Z,39.15
2023-04-28T12:12:45.202Z,34.38
2023-04-28T12:17:51.922Z,29.15
2023-04-28T12:22:53.650Z,33.80
2023-04-28T12:28:02.504Z,35.80
2023-04-28T12:33:04.346Z,33.75
2023-04-28T12:38:06.012Z,34.97
2023-04-28T12:43:07.501Z,36.17
2023-04-28T12:48:09.085Z,35.47
2023-04-28T12:53:11.094Z,38.05
2023-04-28T12:58:12.697Z,35.67
2023-04-28T13:03:15.898Z,34.13
2023-04-28T13:08:17.487Z,31.45
2023-04-28T13:13:19.008Z,30.92
2023-04-28T13:18:20.541Z,18.50
2023-04-28T13:23:22.227Z,21.90
2023-04-28T13:28:24.178Z,28.02
2023-04-28T13:33:31.109Z,33.13
2023-04-28T13:38:32.972Z,33.88
2023-04-28T13:43:34.530Z,30.65
2023-04-28T13:48:36.269Z,31.52
2023-04-28T13:53:40.513Z,30.23
2023-04-28T13:58:42.101Z,27.80
2023-04-28T14:03:44.640Z,32.95
2023-04-28T14:08:46.413Z,26.65
2023-04-28T14:13:47.886Z,29.35
2023-04-28T14:18:49.761Z,26.95
2023-04-28T14:23:51.302Z,32.10
2023-04-28T14:28:53.889Z,31.17
2023-04-28T14:33:55.521Z,25.00
2023-04-28T14:38:57.699Z,28.25
2023-04-28T14:43:59.265Z,29.63
2023-04-28T14:49:02.523Z,27.77
2023-04-28T14:54:04.409Z,26.77
2023-04-28T14:59:06.104Z,25.80
2023-04-28T15:04:08.174Z,28.30
2023-04-28T15:09:10.607Z,22.73
2023-04-28T15:14:12.323Z,24.38
2023-04-28T15:19:14.609Z,22.85
2023-04-28T15:24:18.526Z,20.70
2023-04-28T15:29:20.712Z,22.90
2023-04-28T15:34:22.973Z,22.67
2023-04-28T15:39:25.648Z,24.42
2023-04-28T15:44:29.226Z,29.92
2023-04-28T15:49:31.952Z,32.47
2023-04-28T15:54:33.564Z,35.85
2023-04-28T15:59:35.793Z,31.15
2023-04-28T16:04:37.930Z,30.27
2023-04-28T16:09:39.666Z,32.88
2023-04-28T16:14:41.256Z,34.00
2023-04-28T16:19:43.567Z,34.15
2023-04-28T16:24:46.288Z,37.53
2023-04-28T16:29:47.903Z,35.40
2023-04-28T16:34:49.541Z,34.38
2023-04-28T16:39:51.638Z,36.60
2023-04-28T16:44:53.439Z,34.15
2023-04-28T16:49:55.073Z,30.98
2023-04-28T16:54:56.686Z,31.00
2023-04-28T16:59:58.179Z,28.70
2023-04-28T17:04:59.743Z,35.58
2023-04-28T17:10:01.376Z,32.00
2023-04-28T17:15:03.076Z,33.15
2023-04-28T17:20:05.038Z,36.17
2023-04-28T17:25:07.124Z,39.72
2023-04-28T17:30:11.741Z,45.50
2023-04-28T17:35:13.207Z,45.70
2023-04-28T17:40:14.667Z,46.13
2023-04-28T17:45:16.175Z,41.65
2023-04-28T17:50:17.718Z,40.55
2023-04-28T17:55:19.279Z,37.80
2023-04-28T18:00:20.985Z,41.30
2023-04-28T18:05:24.306Z,39.33
2023-04-28T18:10:28.109Z,37.33
2023-04-28T18:15:30.559Z,35.65
2023-04-28T18:20:32.020Z,39.13
2023-04-28T18:25:33.614Z,45.60
2023-04-28T18:30:38.005Z,40.03
2023-04-28T18:35:39.951Z,35.60
2023-04-28T18:40:41.494Z,38.55
2023-04-28T18:45:43.874Z,33.30
2023-04-28T18:50:48.468Z,35.13
2023-04-28T18:55:50.115Z,38.20
2023-04-28T19:00:52.508Z,36.28
2023-04-28T19:05:54.182Z,43.05
2023-04-28T19:11:00.297Z,35.30
2023-04-28T19:16:02.092Z,32.53
2023-04-28T19:21:04.766Z,32.17
2023-04-28T19:26:07.695Z,24.92
2023-04-28T19:31:09.383Z,29.05
2023-04-28T19:36:10.900Z,28.35
2023-04-28T19:41:12.435Z,27.35
2023-04-28T19:46:15.093Z,22.83
2023-04-28T19:51:16.883Z,23.40
2023-04-28T19:56:18.456Z,19.33
2023-04-28T20:01:20.042Z,19.85
2023-04-28T20:06:22.247Z,19.25
2023-04-28T20:11:24.717Z,17.42
2023-04-28T20:16:27.074Z,20.05
2023-04-28T20:21:28.622Z,18.13
2023-04-28T20:26:31.204Z,19.65
2023-04-28T20:31:33.099Z,17.23
2023-04-28T20:36:34.697Z,21.85
2023-04-28T20:41:36.788Z,20.55
2023-04-28T20:46:38.381Z,22.50
2023-04-28T20:51:45.300Z,24.40
2023-04-28T20:56:46.796Z,24.93
2023-04-28T21:01:48.713Z,32.15
2023-04-28T21:06:51.681Z,31.92
2023-04-28T21:11:53.138Z,35.38
2023-04-28T21:16:54.770Z,30.50
2023-04-28T21:21:57.068Z,33.60
2023-04-28T21:26:59.560Z,35.55
2023-04-28T21:32:01.171Z,36.92
2023-04-28T21:37:02.734Z,35.28
2023-04-28T21:42:04.760Z,37.92
2023-04-28T21:47:09.487Z,33.85
2023-04-28T21:52:10.972Z,35.67
2023-04-28T21:57:12.509Z,41.58
2023-04-28T22:02:14.175Z,36.95
2023-04-28T22:07:16.231Z,36.22
2023-04-28T22:12:18.696Z,36.15
2023-04-28T22:17:20.283Z,36.45
2023-04-28T22:22:21.940Z,35.90
2023-04-28T22:27:23.488Z,40.15
2023-04-28T22:32:26.537Z,47.15
2023-04-28T22:37:28.184Z,34.90
2023-04-28T22:42:29.727Z,35.47
2023-04-28T22:47:31.511Z,28.65
2023-04-28T22:52:34.168Z,30.88
2023-04-28T22:57:36.529Z,31.92
2023-04-28T23:02:38.187Z,28.15
2023-04-28T23:07:39.824Z,33.72
2023-04-28T23:12:41.365Z,33.38
2023-04-28T23:17:43.309Z,27.52
2023-04-28T23:22:44.883Z,27.35
2023-04-28T23:27:46.553Z,25.13
2023-04-28T23:32:48.076Z,26.50
2023-04-28T23:37:49.550Z,24.80
2023-04-28T23:42:51.059Z,29.90
2023-04-28T23:47:53.376Z,30.45
2023-04-28T23:52:54.974Z,25.52
2023-04-28T23:57:56.490Z,23.70
